Time;durP1;ratioP1;P1;durP2;ratioP2;P2;SDS_P1;SDS_P2;PMS_P1;PMS_P2;Temp;Humidity;BMP_temperature;BMP_pressure;BME280_temperature;BME280_humidity;BME280_pressure;Samples;Min_cycle;Max_cycle;Signal;HPM_P1;HPM_P2
2022/07/20 00:01:37;;;;;;;5.47;0.93;;;;;;;20.27;100.00;99231.63;7390995;19;20071;-55
2022/07/20 00:04:04;;;;;;;1.83;0.68;;;;;;;20.24;100.00;99231.97;7389689;19;20006;-55
2022/07/20 00:06:30;;;;;;;6.38;1.38;;;;;;;20.21;100.00;99238.75;7393209;19;20018;-55
2022/07/20 00:11:41;;;;;;;8.27;1.73;;;;;;;20.13;100.00;99240.75;7390501;19;20014;-55
2022/07/20 00:14:07;;;;;;;2.47;0.68;;;;;;;20.12;100.00;99236.44;7390567;19;20358;-55
2022/07/20 00:16:35;;;;;;;5.85;1.17;;;;;;;20.15;100.00;99235.28;7393950;19;20023;-55
2022/07/20 00:19:01;;;;;;;2.47;1.08;;;;;;;20.09;100.00;99226.22;7390683;19;20011;-55
2022/07/20 00:21:27;;;;;;;1.65;0.75;;;;;;;20.07;100.00;99223.19;7390323;19;20027;-55
2022/07/20 00:23:54;;;;;;;2.80;0.85;;;;;;;20.05;100.00;99220.16;7392661;19;20010;-55
2022/07/20 00:26:20;;;;;;;2.03;0.95;;;;;;;20.00;100.00;99223.91;7392939;19;20073;-55
2022/07/20 00:28:46;;;;;;;5.53;1.63;;;;;;;19.96;100.00;99223.50;7389950;19;20002;-55
2022/07/20 00:31:12;;;;;;;8.70;1.35;;;;;;;19.92;100.00;99223.09;7389701;19;20033;-55
2022/07/20 00:33:39;;;;;;;1.27;0.68;;;;;;;19.94;100.00;99231.78;7388470;19;20011;-55
2022/07/20 00:36:05;;;;;;;3.15;0.60;;;;;;;19.97;100.00;99225.00;7392217;19;20010;-55
2022/07/20 00:38:31;;;;;;;3.63;1.02;;;;;;;19.98;100.00;99229.34;7389972;19;20593;-55
2022/07/20 00:40:58;;;;;;;5.63;1.20;;;;;;;20.00;100.00;99235.19;7390524;19;20025;-55
2022/07/20 00:43:24;;;;;;;6.93;1.73;;;;;;;20.03;100.00;99234.84;7389015;19;20007;-55
2022/07/20 00:45:50;;;;;;;4.68;1.23;;;;;;;20.05;100.00;99239.97;7389230;19;20015;-55
2022/07/20 00:48:16;;;;;;;3.05;1.15;;;;;;;20.05;100.00;99237.13;7391954;19;20010;-55
2022/07/20 00:50:42;;;;;;;6.57;1.30;;;;;;;19.97;100.00;99237.06;7389985;19;20039;-55
2022/07/20 00:53:09;;;;;;;2.50;1.48;;;;;;;19.97;100.00;99253.25;7391547;19;20014;-55
2022/07/20 00:55:35;;;;;;;3.67;1.00;;;;;;;19.91;100.00;99247.00;7390238;19;20023;-55
2022/07/20 00:58:02;;;;;;;3.92;1.35;;;;;;;19.87;100.00;99252.25;7388414;19;20015;-55
2022/07/20 01:00:28;;;;;;;2.38;0.88;;;;;;;19.87;100.00;99257.91;7387062;19;20014;-55
2022/07/20 01:02:54;;;;;;;3.75;0.73;;;;;;;19.90;100.00;99254.00;7387803;19;20679;-55
2022/07/20 01:05:21;;;;;;;2.88;1.52;;;;;;;19.91;100.00;99261.13;7387909;19;20077;-56
2022/07/20 01:07:48;;;;;;;1.27;0.35;;;;;;;19.88;100.00;99256.59;7389099;19;20010;-56
2022/07/20 01:10:17;;;;;;;6.63;1.33;;;;;;;19.78;100.00;99242.22;7388807;19;20663;-56
2022/07/20 01:12:45;;;;;;;3.97;1.33;;;;;;;19.73;100.00;99245.94;7389218;19;20025;-57
2022/07/20 01:15:12;;;;;;;5.13;1.08;;;;;;;19.68;100.00;99258.88;7387586;19;20027;-56
2022/07/20 01:17:38;;;;;;;14.05;1.52;;;;;;;19.66;100.00;99264.34;7389761;19;20007;-56
2022/07/20 01:20:05;;;;;;;4.05;1.10;;;;;;;19.65;100.00;99285.44;7388131;19;20019;-56
2022/07/20 01:22:31;;;;;;;3.42;0.95;;;;;;;19.64;100.00;99283.91;7394574;19;20014;-56
2022/07/20 01:24:58;;;;;;;3.65;1.10;;;;;;;19.67;100.00;99287.69;7395294;19;20070;-56
2022/07/20 01:27:24;;;;;;;4.18;1.13;;;;;;;19.67;100.00;99288.47;7400898;19;20074;-55
2022/07/20 01:29:50;;;;;;;5.32;1.40;;;;;;;19.64;100.00;99289.56;7396546;19;20024;-55
2022/07/20 01:32:16;;;;;;;1.85;1.13;;;;;;;19.59;100.00;99289.72;7392562;19;20335;-55
2022/07/20 01:34:42;;;;;;;5.25;0.98;;;;;;;19.56;100.00;99288.75;7395766;19;20027;-55
2022/07/20 01:37:08;;;;;;;1.17;0.88;;;;;;;19.54;100.00;99285.72;7398850;19;20047;-55
2022/07/20 01:39:35;;;;;;;1.90;0.75;;;;;;;19.49;100.00;99288.69;7395819;19;20423;-55
2022/07/20 01:42:02;;;;;;;3.92;0.82;;;;;;;19.46;100.00;99293.38;7395390;19;20019;-55
2022/07/20 01:44:28;;;;;;;2.10;0.75;;;;;;;19.43;100.00;99294.47;7394732;19;20006;-55
2022/07/20 01:46:54;;;;;;;3.33;0.93;;;;;;;19.38;100.00;99295.34;7398444;19;20363;-55
2022/07/20 01:49:22;;;;;;;8.15;1.77;;;;;;;19.34;100.00;99302.63;7395401;19;20341;-55
2022/07/20 01:51:48;;;;;;;2.55;1.30;;;;;;;19.26;100.00;99299.72;7395083;19;20018;-55
2022/07/20 01:54:14;;;;;;;5.90;1.67;;;;;;;19.26;100.00;99304.59;7398924;19;20371;-55
2022/07/20 01:56:41;;;;;;;1.48;0.47;;;;;;;19.21;100.00;99297.78;7394389;19;20019;-56
2022/07/20 01:59:08;;;;;;;8.25;1.55;;;;;;;19.18;100.00;99296.06;7395285;19;20030;-55
2022/07/20 02:01:35;;;;;;;1.88;0.60;;;;;;;19.28;100.00;99304.81;7394375;19;20345;-55
2022/07/20 02:04:02;;;;;;;6.50;1.17;;;;;;;19.30;100.00;99294.50;7394382;19;20062;-55
2022/07/20 02:06:28;;;;;;;1.15;1.00;;;;;;;19.29;100.00;99298.63;7396442;19;20454;-55
2022/07/20 02:08:54;;;;;;;3.20;0.55;;;;;;;19.25;100.00;99297.44;7393800;19;20014;-55
2022/07/20 02:11:21;;;;;;;1.73;0.77;;;;;;;19.19;100.00;99303.22;7394402;19;20760;-55
2022/07/20 02:13:47;;;;;;;3.35;1.38;;;;;;;19.14;100.00;99292.81;7393117;19;20007;-55
2022/07/20 02:16:16;;;;;;;4.32;1.30;;;;;;;19.07;100.00;99299.13;7395581;19;20038;-54
2022/07/20 02:18:46;;;;;;;4.70;0.98;;;;;;;19.08;100.00;99280.88;7393706;19;20370;-54
2022/07/20 02:21:17;;;;;;;3.88;0.85;;;;;;;19.07;100.00;99273.75;7394099;19;20015;-54
2022/07/20 02:23:44;;;;;;;2.70;1.10;;;;;;;19.03;100.00;99273.31;7396548;19;20534;-54
2022/07/20 02:26:10;;;;;;;1.67;0.80;;;;;;;19.03;100.00;99287.44;7393687;19;20021;-55
2022/07/20 02:28:37;;;;;;;1.42;0.85;;;;;;;18.95;100.00;99297.84;7393241;19;20046;-55
2022/07/20 02:31:04;;;;;;;7.00;1.08;;;;;;;18.87;100.00;99299.84;7394105;19;20023;-55
2022/07/20 02:33:30;;;;;;;4.07;1.17;;;;;;;18.80;100.00;99297.69;7393388;19;20010;-55
2022/07/20 02:35:56;;;;;;;7.63;1.40;;;;;;;18.76;100.00;99294.44;7394157;19;20035;-55
2022/07/20 02:38:23;;;;;;;8.27;1.35;;;;;;;18.77;100.00;99307.25;7393599;19;20038;-55
2022/07/20 02:40:50;;;;;;;3.40;1.38;;;;;;;18.78;100.00;99306.69;7393338;19;20592;-55
2022/07/20 02:43:16;;;;;;;4.50;1.42;;;;;;;18.85;100.00;99310.91;7393009;19;20014;-55
2022/07/20 02:45:42;;;;;;;3.30;0.98;;;;;;;18.90;100.00;99318.50;7392125;19;20023;-55
2022/07/20 02:48:08;;;;;;;5.55;1.17;;;;;;;18.89;100.00;99316.97;7396235;19;20034;-55
2022/07/20 02:50:37;;;;;;;4.35;1.48;;;;;;;18.89;100.00;99322.63;7392382;19;20462;-55
2022/07/20 02:53:05;;;;;;;1.48;0.40;;;;;;;18.89;100.00;99314.16;7393373;19;20086;-55
2022/07/20 02:55:32;;;;;;;4.95;1.08;;;;;;;18.86;100.00;99323.72;7393177;19;20007;-55
2022/07/20 02:57:58;;;;;;;2.28;1.30;;;;;;;18.77;100.00;99329.81;7392274;19;20011;-55
2022/07/20 03:00:25;;;;;;;4.20;1.27;;;;;;;18.76;100.00;99339.56;7392635;19;20023;-55
2022/07/20 03:02:51;;;;;;;3.25;1.38;;;;;;;18.75;100.00;99352.19;7392068;19;20011;-54
2022/07/20 03:05:17;;;;;;;5.38;1.08;;;;;;;18.75;100.00;99352.19;7391333;19;20015;-54
2022/07/20 03:07:44;;;;;;;4.35;1.58;;;;;;;18.75;100.00;99355.00;7392393;19;20011;-54
2022/07/20 03:10:10;;;;;;;3.47;1.27;;;;;;;18.82;100.00;99362.78;7391250;19;20419;-54
2022/07/20 03:12:36;;;;;;;3.53;1.08;;;;;;;18.88;100.00;99357.81;7392277;19;20097;-54
2022/07/20 03:15:04;;;;;;;2.13;1.25;;;;;;;18.96;100.00;99363.53;7392184;19;20010;-54
2022/07/20 03:17:30;;;;;;;3.20;1.30;;;;;;;18.99;100.00;99368.09;7396776;19;20014;-54
2022/07/20 03:19:57;;;;;;;3.85;2.13;;;;;;;19.00;100.00;99370.38;7391266;19;20582;-54
2022/07/20 03:22:23;;;;;;;3.90;1.38;;;;;;;19.02;100.00;99370.56;7391029;19;20046;-54
2022/07/20 03:24:49;;;;;;;4.97;1.23;;;;;;;19.04;100.00;99387.72;7390540;19;20332;-54
2022/07/20 03:27:15;;;;;;;3.53;1.58;;;;;;;19.05;100.00;99386.44;7395759;19;20376;-54
2022/07/20 03:29:42;;;;;;;6.40;2.15;;;;;;;19.04;100.00;99370.03;7390910;19;20014;-54
2022/07/20 03:32:08;;;;;;;7.30;1.85;;;;;;;19.01;100.00;99362.66;7389532;19;20011;-54
2022/07/20 03:34:34;;;;;;;2.40;1.17;;;;;;;19.01;100.00;99369.06;7390570;19;20010;-55
2022/07/20 03:37:00;;;;;;;6.78;1.85;;;;;;;18.97;100.00;99379.94;7394831;19;20024;-55
2022/07/20 03:39:27;;;;;;;4.65;1.15;;;;;;;18.90;100.00;99377.78;7390560;19;20095;-55
2022/07/20 03:41:53;;;;;;;9.23;2.97;;;;;;;18.90;100.00;99372.13;7390956;19;20070;-55
2022/07/20 03:44:19;;;;;;;7.30;1.30;;;;;;;18.86;100.00;99366.78;7388977;19;20014;-55
2022/07/20 03:46:45;;;;;;;9.43;2.45;;;;;;;18.84;100.00;99365.84;7392817;19;20786;-55
2022/07/20 03:49:11;;;;;;;8.40;1.30;;;;;;;18.78;100.00;99362.34;7390825;19;20048;-55
2022/07/20 03:51:38;;;;;;;5.03;1.95;;;;;;;18.77;100.00;99366.50;7390565;19;20035;-55
2022/07/20 03:54:06;;;;;;;7.18;1.50;;;;;;;18.72;100.00;99364.53;7393288;19;20014;-55
2022/07/20 03:56:32;;;;;;;5.45;1.77;;;;;;;18.71;100.00;99368.69;7392539;19;20038;-55
2022/07/20 03:58:58;;;;;;;4.80;1.73;;;;;;;18.63;100.00;99364.97;7389149;19;20014;-55
2022/07/20 04:01:25;;;;;;;6.88;1.85;;;;;;;18.57;100.00;99370.72;7390040;19;20043;-55
2022/07/20 04:03:51;;;;;;;3.42;2.20;;;;;;;18.56;100.00;99386.13;7389401;19;20339;-54
2022/07/20 04:06:17;;;;;;;11.93;2.15;;;;;;;18.53;100.00;99392.09;7388902;19;20033;-55
2022/07/20 04:08:43;;;;;;;13.90;2.85;;;;;;;18.48;100.00;99395.78;7389355;19;20018;-55
2022/07/20 04:11:09;;;;;;;6.25;1.63;;;;;;;18.48;100.00;99401.41;7390746;19;20006;-54
2022/07/20 04:13:35;;;;;;;5.50;1.67;;;;;;;18.47;100.00;99389.41;7390563;19;20023;-55
2022/07/20 04:16:02;;;;;;;12.20;2.28;;;;;;;18.51;100.00;99383.41;7392112;19;20624;-55
2022/07/20 04:18:28;;;;;;;3.72;1.42;;;;;;;18.61;100.00;99385.25;7390224;19;20439;-55
2022/07/20 04:20:54;;;;;;;12.13;2.30;;;;;;;18.68;100.00;99386.69;7390212;19;20022;-55
2022/07/20 04:23:20;;;;;;;6.65;2.42;;;;;;;18.73;100.00;99385.81;7392343;19;20014;-55
2022/07/20 04:25:46;;;;;;;12.38;1.45;;;;;;;18.79;100.00;99389.28;7389205;19;20010;-54
2022/07/20 04:28:12;;;;;;;9.00;1.67;;;;;;;18.82;100.00;99379.72;7389361;19;20070;-54
2022/07/20 04:30:38;;;;;;;14.30;2.15;;;;;;;18.90;100.00;99401.09;7389413;19;20018;-54
2022/07/20 04:33:05;;;;;;;6.07;2.03;;;;;;;18.96;100.00;99400.97;7389127;19;20006;-55
2022/07/20 04:35:31;;;;;;;39.78;2.85;;;;;;;19.02;100.00;99398.78;7390579;19;20014;-55
2022/07/20 04:37:57;;;;;;;12.73;2.05;;;;;;;19.09;100.00;99403.78;7388765;19;20467;-55
2022/07/20 04:40:23;;;;;;;3.53;1.60;;;;;;;19.15;100.00;99412.88;7389699;19;20014;-54
2022/07/20 04:42:49;;;;;;;8.57;2.28;;;;;;;19.18;100.00;99417.47;7389426;19;20022;-54
2022/07/20 04:45:15;;;;;;;5.15;1.48;;;;;;;19.22;100.00;99423.53;7388165;19;20517;-54
2022/07/20 04:47:41;;;;;;;6.30;1.67;;;;;;;19.26;100.00;99437.31;7392316;19;20098;-54
2022/07/20 04:50:08;;;;;;;12.27;1.52;;;;;;;19.28;100.00;99438.28;7389439;19;20081;-54
2022/07/20 04:52:34;;;;;;;5.82;1.40;;;;;;;19.31;100.00;99436.44;7390229;19;20007;-54
2022/07/20 04:55:01;;;;;;;7.28;2.40;;;;;;;19.33;100.00;99443.06;7389893;19;20014;-54
2022/07/20 04:57:27;;;;;;;6.40;1.92;;;;;;;19.34;100.00;99450.25;7397354;19;20062;-55
2022/07/20 04:59:53;;;;;;;11.88;1.58;;;;;;;19.34;100.00;99453.06;7396957;19;20354;-55
2022/07/20 05:02:19;;;;;;;3.88;1.55;;;;;;;19.36;100.00;99461.75;7396504;19;20021;-55
2022/07/20 05:04:46;;;;;;;3.88;1.58;;;;;;;19.37;100.00;99462.50;7395597;19;20015;-55
2022/07/20 05:07:13;;;;;;;6.20;1.58;;;;;;;19.38;100.00;99467.59;7400543;19;20017;-55
2022/07/20 05:09:40;;;;;;;2.20;1.20;;;;;;;19.37;100.00;99466.09;7396506;19;20010;-55
2022/07/20 05:12:07;;;;;;;10.48;1.35;;;;;;;19.38;100.00;99473.25;7395990;19;20575;-55
2022/07/20 05:14:33;;;;;;;11.82;2.45;;;;;;;19.37;100.00;99471.75;7395429;19;20459;-55
2022/07/20 05:16:59;;;;;;;4.30;1.02;;;;;;;19.37;100.00;99474.56;7399319;19;20015;-54
2022/07/20 05:19:26;;;;;;;5.30;1.52;;;;;;;19.32;100.00;99483.13;7398042;19;20035;-54
2022/07/20 05:21:52;;;;;;;1.63;0.90;;;;;;;19.30;100.00;99482.91;7399588;19;20446;-56
2022/07/20 05:24:18;;;;;;;6.70;1.42;;;;;;;19.29;100.00;99481.41;7397172;19;20384;-56
2022/07/20 05:26:44;;;;;;;2.53;1.08;;;;;;;19.20;100.00;99474.13;7400223;19;20010;-55
2022/07/20 05:29:10;;;;;;;7.38;1.50;;;;;;;19.21;100.00;99477.72;7396193;19;20463;-55
2022/07/20 05:31:37;;;;;;;5.72;1.60;;;;;;;19.15;100.00;99475.00;7396942;19;20039;-55
2022/07/20 05:34:03;;;;;;;9.68;0.90;;;;;;;19.09;100.00;99487.69;7394056;19;20018;-55
2022/07/20 05:36:29;;;;;;;2.28;0.73;;;;;;;19.07;100.00;99481.84;7397836;19;20415;-55
2022/07/20 05:38:55;;;;;;;8.02;0.93;;;;;;;19.10;100.00;99481.50;7395865;19;20010;-55
2022/07/20 05:41:21;;;;;;;1.85;0.90;;;;;;;19.09;100.00;99494.13;7392647;19;20508;-55
2022/07/20 05:43:47;;;;;;;5.20;2.03;;;;;;;19.08;100.00;99503.88;7394706;19;20006;-55
2022/07/20 05:46:13;;;;;;;4.60;0.80;;;;;;;19.05;100.00;99519.09;7394772;19;20006;-55
2022/07/20 05:48:40;;;;;;;6.60;1.23;;;;;;;19.10;100.00;99523.09;7397186;19;20471;-55
2022/07/20 05:51:06;;;;;;;3.00;1.52;;;;;;;19.07;100.00;99530.59;7395590;19;20022;-55
2022/07/20 05:53:32;;;;;;;3.45;1.42;;;;;;;19.06;100.00;99522.69;7397722;19;20018;-55
2022/07/20 05:55:59;;;;;;;3.03;1.42;;;;;;;18.94;100.00;99527.75;7396238;19;20017;-55
2022/07/20 05:58:25;;;;;;;3.72;0.52;;;;;;;18.94;100.00;99522.13;7395010;19;20042;-55
2022/07/20 06:00:51;;;;;;;0.80;0.28;;;;;;;18.96;100.00;99533.63;7393866;19;20015;-55
2022/07/20 06:03:17;;;;;;;3.53;1.10;;;;;;;18.96;100.00;99541.31;7393809;19;20010;-55
2022/07/20 06:05:43;;;;;;;4.25;0.47;;;;;;;18.94;100.00;99555.97;7394789;19;20003;-55
2022/07/20 06:08:10;;;;;;;4.03;1.10;;;;;;;19.01;100.00;99566.63;7393784;19;20117;-55
2022/07/20 06:10:36;;;;;;;3.90;0.70;;;;;;;18.97;100.00;99568.25;7395103;19;20011;-55
2022/07/20 06:13:03;;;;;;;0.90;0.45;;;;;;;18.96;100.00;99564.66;7394581;19;20006;-55
2022/07/20 06:15:30;;;;;;;7.72;0.73;;;;;;;18.90;100.00;99566.84;7392314;19;20463;-55
2022/07/20 06:17:56;;;;;;;2.85;0.55;;;;;;;18.88;100.00;99581.47;7394859;19;20031;-55
2022/07/20 06:20:24;;;;;;;3.45;0.50;;;;;;;18.95;100.00;99582.88;7392335;19;20435;-55
2022/07/20 06:22:50;;;;;;;1.20;0.52;;;;;;;18.92;100.00;99592.44;7394892;19;20068;-55
2022/07/20 06:25:18;;;;;;;7.32;0.60;;;;;;;18.95;100.00;99604.72;7393295;19;20003;-55
2022/07/20 06:27:44;;;;;;;1.50;0.50;;;;;;;18.92;100.00;99600.91;7393814;19;20807;-55
2022/07/20 06:30:12;;;;;;;2.20;0.98;;;;;;;18.94;100.00;99592.66;7394319;19;20626;-55
2022/07/20 06:32:39;;;;;;;2.50;0.63;;;;;;;18.96;100.00;99603.41;7393548;19;20418;-55
2022/07/20 06:35:06;;;;;;;1.40;0.45;;;;;;;19.00;100.00;99604.63;7393697;19;20010;-55
2022/07/20 06:37:32;;;;;;;8.45;1.17;;;;;;;19.04;100.00;99598.63;7397102;19;20056;-55
2022/07/20 06:39:59;;;;;;;5.20;0.52;;;;;;;19.09;100.00;99601.38;7391395;19;20025;-55
2022/07/20 06:42:25;;;;;;;1.23;0.70;;;;;;;19.15;100.00;99607.69;7391874;19;20087;-55
2022/07/20 06:44:51;;;;;;;2.60;0.65;;;;;;;19.21;100.00;99616.81;7392680;19;20011;-55
2022/07/20 06:47:17;;;;;;;1.30;0.50;;;;;;;19.26;100.00;99610.31;7397246;19;20093;-55
2022/07/20 06:49:43;;;;;;;3.60;1.35;;;;;;;19.35;100.00;99611.97;7393518;19;20011;-55
2022/07/20 06:52:09;;;;;;;1.63;0.28;;;;;;;19.36;100.00;99617.06;7393567;19;20024;-55
2022/07/20 06:54:36;;;;;;;5.13;0.75;;;;;;;19.36;100.00;99625.53;7398129;19;20006;-55
2022/07/20 06:57:02;;;;;;;0.88;0.38;;;;;;;19.43;100.00;99624.13;7395822;19;20010;-55
2022/07/20 06:59:28;;;;;;;3.80;0.88;;;;;;;19.54;100.00;99624.69;7392506;19;20507;-55
2022/07/20 07:01:54;;;;;;;1.17;0.50;;;;;;;19.62;100.00;99619.16;7392784;19;20034;-55
2022/07/20 07:04:20;;;;;;;3.45;0.80;;;;;;;19.64;100.00;99617.28;7392496;19;20066;-55
2022/07/20 07:06:47;;;;;;;3.22;0.93;;;;;;;19.68;100.00;99629.03;7395620;19;20102;-55
2022/07/20 07:09:13;;;;;;;5.03;0.77;;;;;;;19.73;100.00;99632.31;7391714;19;20380;-55
2022/07/20 07:11:39;;;;;;;0.68;0.32;;;;;;;19.74;100.00;99620.44;7392620;19;20014;-55
2022/07/20 07:14:05;;;;;;;4.10;0.40;;;;;;;19.75;100.00;99626.88;7391921;19;20011;-55
2022/07/20 07:16:32;;;;;;;3.90;0.98;;;;;;;19.76;100.00;99623.50;7393917;19;20381;-55
2022/07/20 07:18:58;;;;;;;3.15;0.63;;;;;;;19.78;100.00;99623.69;7389018;19;20011;-55
2022/07/20 07:21:24;;;;;;;0.40;0.20;;;;;;;19.81;100.00;99624.69;7391797;19;20007;-55
2022/07/20 07:23:50;;;;;;;0.93;0.30;;;;;;;19.82;100.00;99620.53;7393999;19;20384;-55
2022/07/20 07:26:18;;;;;;;1.42;0.45;;;;;;;19.86;100.00;99626.63;7392116;19;20521;-55
2022/07/20 07:28:44;;;;;;;2.10;0.60;;;;;;;19.95;100.00;99631.81;7391886;19;20070;-55
2022/07/20 07:31:11;;;;;;;1.58;0.80;;;;;;;20.01;100.00;99633.22;7392212;19;20006;-55
2022/07/20 07:33:38;;;;;;;10.02;0.63;;;;;;;19.97;100.00;99644.09;7390387;19;20463;-55
2022/07/20 07:36:05;;;;;;;0.80;0.38;;;;;;;19.96;100.00;99641.84;7392794;19;20010;-55
2022/07/20 07:38:32;;;;;;;0.70;0.30;;;;;;;19.97;100.00;99640.50;7391151;19;20014;-55
2022/07/20 07:40:58;;;;;;;8.55;0.80;;;;;;;20.00;100.00;99642.25;7390943;19;20007;-56
2022/07/20 07:43:24;;;;;;;3.72;0.40;;;;;;;19.97;100.00;99649.00;7390802;19;20462;-55
2022/07/20 07:45:50;;;;;;;5.30;0.80;;;;;;;19.94;100.00;99662.19;7391436;19;20391;-55
2022/07/20 07:48:17;;;;;;;4.78;1.05;;;;;;;20.00;100.00;99659.22;7394742;19;20015;-55
2022/07/20 07:50:44;;;;;;;8.80;1.17;;;;;;;20.13;100.00;99659.22;7390388;19;20031;-55
2022/07/20 07:53:11;;;;;;;1.50;0.45;;;;;;;20.21;100.00;99654.44;7392678;19;20010;-55
2022/07/20 07:55:39;;;;;;;3.15;0.43;;;;;;;20.32;100.00;99657.78;7391348;19;20006;-55
2022/07/20 07:58:06;;;;;;;5.38;1.95;;;;;;;20.34;100.00;99662.88;7390216;19;20510;-55
2022/07/20 08:00:33;;;;;;;5.15;0.43;;;;;;;20.28;100.00;99662.25;7391262;19;20366;-55
2022/07/20 08:02:59;;;;;;;4.30;0.73;;;;;;;20.26;100.00;99664.88;7390566;19;20363;-55
2022/07/20 08:05:25;;;;;;;0.73;0.30;;;;;;;20.25;100.00;99669.75;7389512;19;20006;-55
2022/07/20 08:07:52;;;;;;;2.67;0.85;;;;;;;20.31;100.00;99678.88;7389931;19;20351;-55
2022/07/20 08:10:18;;;;;;;6.10;0.50;;;;;;;20.33;100.00;99675.53;7388495;19;20010;-55
2022/07/20 08:12:44;;;;;;;1.65;0.95;;;;;;;20.30;100.00;99682.25;7389758;19;20014;-55
2022/07/20 08:15:11;;;;;;;2.60;0.43;;;;;;;20.33;100.00;99681.19;7389422;19;20126;-55
2022/07/20 08:17:38;;;;;;;13.20;1.73;;;;;;;20.38;100.00;99671.78;7390333;19;20021;-55
2022/07/20 08:20:06;;;;;;;2.08;0.77;;;;;;;20.34;100.00;99683.44;7391039;19;20015;-55
2022/07/20 08:22:33;;;;;;;3.38;1.02;;;;;;;20.30;100.00;99676.59;7390525;19;20011;-54
2022/07/20 08:25:00;;;;;;;0.73;0.40;;;;;;;20.35;100.00;99689.88;7391785;19;20014;-54
2022/07/20 08:27:26;;;;;;;4.03;0.75;;;;;;;20.45;100.00;99685.28;7392586;19;20446;-55
2022/07/20 08:29:58;;;;;;;3.08;1.13;;;;;;;20.62;100.00;99680.00;7386951;19;20033;-54
2022/07/20 08:32:25;;;;;;;6.10;0.95;;;;;;;20.85;100.00;99678.19;7388288;19;20015;-54
2022/07/20 08:34:51;;;;;;;4.65;0.75;;;;;;;21.11;100.00;99668.81;7389834;19;20070;-54
2022/07/20 08:37:17;;;;;;;1.38;0.20;;;;;;;21.34;100.00;99675.44;7393989;19;20482;-54
2022/07/20 08:39:44;;;;;;;2.10;0.50;;;;;;;21.62;100.00;99683.19;7389485;19;20002;-54
2022/07/20 08:42:10;;;;;;;15.55;1.98;;;;;;;21.88;100.00;99677.34;7390444;19;20049;-54
2022/07/20 08:44:40;;;;;;;4.25;0.47;;;;;;;22.04;100.00;99690.28;7388565;19;20512;-54
2022/07/20 08:47:10;;;;;;;4.13;0.83;;;;;;;21.97;100.00;99688.16;7393176;19;20430;-54
2022/07/20 08:49:38;;;;;;;4.25;0.50;;;;;;;21.89;100.00;99685.28;7389029;19;20031;-54
2022/07/20 08:52:04;;;;;;;2.78;0.32;;;;;;;21.81;100.00;99689.34;7389643;19;20099;-54
2022/07/20 08:54:31;;;;;;;2.03;0.17;;;;;;;21.75;100.00;99702.94;7393767;19;20066;-54
2022/07/20 08:56:58;;;;;;;6.65;0.70;;;;;;;21.84;100.00;99699.63;7393355;19;20014;-54
2022/07/20 08:59:24;;;;;;;3.65;0.45;;;;;;;21.97;100.00;99701.59;7390059;19;20015;-54
2022/07/20 09:01:58;;;;;;;1.58;0.35;;;;;;;22.01;100.00;99705.59;7389274;19;20028;-54
2022/07/20 09:04:24;;;;;;;2.10;0.08;;;;;;;22.10;100.00;99705.06;7387243;19;20481;-54
2022/07/20 09:06:50;;;;;;;12.15;0.82;;;;;;;22.13;100.00;99709.63;7392295;19;20019;-54
2022/07/20 09:09:18;;;;;;;1.25;0.63;;;;;;;22.21;100.00;99704.00;7388560;19;20018;-54
2022/07/20 09:11:45;;;;;;;0.15;0.00;;;;;;;22.23;100.00;99702.13;7389509;19;20011;-54
2022/07/20 09:14:12;;;;;;;2.67;0.45;;;;;;;22.24;100.00;99709.28;7388842;19;20507;-54
2022/07/20 09:16:46;;;;;;;1.52;0.22;;;;;;;22.30;100.00;99695.72;7392150;19;20017;-54
2022/07/20 09:19:17;;;;;;;2.47;0.22;;;;;;;22.49;100.00;99707.53;7389179;19;20010;-54
2022/07/20 09:21:43;;;;;;;2.28;0.28;;;;;;;22.68;100.00;99718.59;7388834;19;20353;-54
2022/07/20 09:24:10;;;;;;;0.65;0.22;;;;;;;22.93;100.00;99716.00;7391289;19;20082;-54
2022/07/20 09:26:37;;;;;;;2.53;0.20;;;;;;;23.05;100.00;99712.25;7389175;19;20015;-54
2022/07/20 09:29:05;;;;;;;2.88;0.20;;;;;;;23.20;100.00;99722.88;7388263;19;20006;-54
2022/07/20 09:31:34;;;;;;;1.88;0.20;;;;;;;23.25;100.00;99719.84;7388730;19;20375;-54
2022/07/20 09:34:06;;;;;;;0.52;0.20;;;;;;;23.25;100.00;99724.78;7388578;19;20021;-54
2022/07/20 09:36:37;;;;;;;4.00;0.52;;;;;;;23.39;100.00;99734.66;7391585;19;20010;-54
2022/07/20 09:39:16;;;;;;;;;;;;;;;23.28;100.00;99732.19;7388431;19;20006;-54
2022/07/20 09:41:51;;;;;;;0.50;0.40;;;;;;;23.21;100.00;99749.97;7388092;19;19919;-54
2022/07/20 09:44:23;;;;;;;4.32;0.00;;;;;;;23.16;100.00;99745.97;7396009;19;20011;-55
2022/07/20 09:46:50;;;;;;;3.17;0.60;;;;;;;23.22;100.00;99757.16;7399107;19;19999;-54
2022/07/20 09:49:17;;;;;;;1.52;0.60;;;;;;;23.20;100.00;99757.72;7396030;19;20010;-55
2022/07/20 09:51:45;;;;;;;2.35;0.20;;;;;;;23.25;100.00;99747.50;7395378;19;20018;-55
2022/07/20 09:54:14;;;;;;;0.45;0.10;;;;;;;23.28;100.00;99757.75;7399382;19;20077;-55
2022/07/20 09:56:44;;;;;;;2.63;0.30;;;;;;;23.28;100.00;99764.16;7397379;19;20021;-55
2022/07/20 09:59:11;;;;;;;1.73;0.30;;;;;;;23.32;100.00;99772.34;7395205;19;20044;-55
2022/07/20 10:01:40;;;;;;;1.08;0.17;;;;;;;23.37;100.00;99777.09;7393971;19;20258;-55
2022/07/20 10:04:09;;;;;;;6.00;0.32;;;;;;;23.42;100.00;99761.94;7394473;19;20082;-55
2022/07/20 10:06:37;;;;;;;0.30;0.10;;;;;;;23.37;100.00;99762.88;7396588;19;20479;-55
2022/07/20 10:09:05;;;;;;;2.20;0.20;;;;;;;23.28;100.00;99769.84;7398362;19;20006;-55
2022/07/20 10:11:32;;;;;;;1.02;0.17;;;;;;;23.16;100.00;99785.00;7398807;19;20425;-55
2022/07/20 10:14:03;;;;;;;1.85;0.30;;;;;;;23.10;100.00;99775.91;7398219;19;20026;-55
2022/07/20 10:16:36;;;;;;;1.52;0.10;;;;;;;23.07;100.00;99782.69;7398879;19;20006;-55
2022/07/20 10:19:04;;;;;;;5.63;0.22;;;;;;;22.83;100.00;99786.78;7396474;19;20011;-56
2022/07/20 10:21:33;;;;;;;8.18;0.25;;;;;;;22.67;100.00;99787.28;7393860;19;20328;-56
2022/07/20 10:24:29;;;;;;;0.65;0.50;;;;;;;22.58;100.00;99788.56;7396873;19;20010;-56
2022/07/20 10:27:07;;;;;;;0.20;0.20;;;;;;;22.42;100.00;99776.34;7393140;19;20020;-56
2022/07/20 10:29:38;;;;;;;6.43;0.30;;;;;;;22.26;100.00;99783.25;7393654;19;20041;-56
2022/07/20 10:32:30;;;;;;;1.25;0.22;;;;;;;22.09;100.00;99799.97;7392922;19;20011;-56
2022/07/20 10:34:58;;;;;;;5.53;0.68;;;;;;;21.92;100.00;99796.84;7393335;19;20007;-56
2022/07/20 10:37:30;;;;;;;0.70;0.32;;;;;;;21.81;100.00;99799.94;7395230;19;20007;-56
2022/07/20 10:40:08;;;;;;;0.98;0.20;;;;;;;21.76;100.00;99798.03;7393156;19;20012;-56
2022/07/20 10:42:40;;;;;;;1.45;0.20;;;;;;;21.76;100.00;99795.19;7393446;19;20422;-56
2022/07/20 10:45:27;;;;;;;8.70;0.10;;;;;;;21.76;100.00;99803.69;7391928;19;20038;-56
2022/07/20 10:48:11;;;;;;;3.33;0.30;;;;;;;21.74;100.00;99797.81;7396503;19;20017;-57
2022/07/20 10:50:40;;;;;;;7.93;0.57;;;;;;;21.84;100.00;99796.78;7392678;19;20057;-56
2022/07/20 10:53:15;;;;;;;6.28;0.30;;;;;;;21.97;100.00;99792.34;7393006;19;20022;-56
2022/07/20 10:55:41;;;;;;;0.77;0.20;;;;;;;22.10;100.00;99792.25;7393642;19;20018;-56
2022/07/20 10:58:12;;;;;;;1.60;0.43;;;;;;;22.22;100.00;99802.72;7392927;19;20010;-56
2022/07/20 11:00:39;;;;;;;;;;;;;;;22.28;100.00;99800.50;7395654;19;20078;-56
2022/07/20 11:03:23;;;;;;;3.65;0.25;;;;;;;22.46;100.00;99799.47;7392346;19;19919;-56
2022/07/20 11:06:12;;;;;;;2.47;0.88;;;;;;;22.60;100.00;99794.47;7392176;19;20007;-56
2022/07/20 11:08:42;;;;;;;2.72;0.20;;;;;;;22.66;100.00;99786.53;7391531;19;20041;-55
2022/07/20 11:11:20;;;;;;;4.38;0.10;;;;;;;22.59;100.00;99787.25;7393140;19;20025;-56
2022/07/20 11:13:47;;;;;;;1.38;0.38;;;;;;;22.52;100.00;99788.69;7392053;19;20372;-55
2022/07/20 11:16:18;;;;;;;1.85;0.20;;;;;;;22.97;100.00;99799.53;7393064;19;20502;-56
2022/07/20 11:18:44;;;;;;;1.02;0.22;;;;;;;23.38;100.00;99795.69;7393451;19;20014;-55
2022/07/20 11:21:14;;;;;;;6.30;0.98;;;;;;;23.75;100.00;99800.66;7392800;19;20018;-55
2022/07/20 11:23:47;;;;;;;4.00;0.30;;;;;;;23.85;100.00;99793.06;7394539;19;20018;-55
2022/07/20 11:26:15;;;;;;;0.40;0.20;;;;;;;23.94;100.00;99794.56;7390430;19;20368;-55
2022/07/20 11:28:58;;;;;;;2.42;0.30;;;;;;;24.27;100.00;99789.81;7392796;19;20033;-56